Time;durP1;ratioP1;P1;durP2;ratioP2;P2;SDS_P1;SDS_P2;PMS_P1;PMS_P2;Temp;Humidity;BMP_temperature;BMP_pressure;BME280_temperature;BME280_humidity;BME280_pressure;Samples;Min_cycle;Max_cycle;Signal;HPM_P1;HPM_P2
2022/03/07 00:02:36;;;;;;;38.75;20.55;;;;;;;-139.48;100.00;61774.03;5012374;28;20040;-73
2022/03/07 00:05:20;;;;;;;48.85;25.48;;;;;;;-139.48;100.00;61774.03;5013557;28;20095;-74
2022/03/07 00:08:05;;;;;;;41.03;21.80;;;;;;;-139.48;100.00;61774.03;5012594;28;20512;-73
2022/03/07 00:10:49;;;;;;;39.28;18.88;;;;;;;-139.48;100.00;61774.03;5012081;28;20053;-74
2022/03/07 00:13:34;;;;;;;24.42;13.10;;;;;;;-139.48;100.00;61774.03;5011861;28;20049;-73
2022/03/07 00:16:18;;;;;;;36.60;20.15;;;;;;;-139.48;100.00;61774.03;5013268;28;20048;-73
2022/03/07 00:19:02;;;;;;;;;;;;;;;-139.48;100.00;61774.03;5013371;28;20053;-73
2022/03/07 00:21:46;;;;;;;71.68;34.85;;;;;;;-139.48;100.00;61774.03;5012003;28;19935;-74
2022/03/07 00:24:30;;;;;;;31.60;16.85;;;;;;;-139.48;100.00;61774.03;5012227;28;20048;-73
2022/03/07 00:27:13;;;;;;;48.03;24.20;;;;;;;-139.48;100.00;61774.03;4998338;28;20052;-75
2022/03/07 00:29:57;;;;;;;70.65;32.42;;;;;;;-139.48;100.00;61774.03;5011826;28;20069;-75
2022/03/07 00:32:42;;;;;;;26.15;14.02;;;;;;;-139.48;100.00;61774.03;5012012;28;20053;-75
2022/03/07 00:35:27;;;;;;;27.48;14.52;;;;;;;-139.48;100.00;61774.03;5012036;28;20100;-75
2022/03/07 00:38:11;;;;;;;55.15;24.77;;;;;;;-139.48;100.00;61774.03;5011831;28;20111;-75
2022/03/07 00:40:55;;;;;;;57.95;24.77;;;;;;;-139.48;100.00;61774.03;5013187;28;20069;-75
2022/03/07 00:43:39;;;;;;;52.45;23.70;;;;;;;-139.48;100.00;61774.03;5041172;23;20469;-72
2022/03/07 00:46:23;;;;;;;30.17;15.27;;;;;;;-139.48;100.00;61774.03;5035902;28;20508;-72
2022/03/07 00:49:08;;;;;;;26.10;13.40;;;;;;;-139.48;100.00;61774.03;5034643;28;20055;-73
2022/03/07 00:51:52;;;;;;;26.77;13.65;;;;;;;-139.48;100.00;61774.03;5035717;28;20053;-72
2022/03/07 00:54:35;;;;;;;36.22;16.98;;;;;;;-139.48;100.00;61774.03;5020725;28;20051;-73
2022/03/07 00:57:20;;;;;;;24.63;11.90;;;;;;;-139.48;100.00;61774.03;5034644;28;20056;-72
2022/03/07 01:00:04;;;;;;;48.75;20.67;;;;;;;-139.48;100.00;61774.03;5035643;28;20524;-72
2022/03/07 01:02:48;;;;;;;45.13;18.80;;;;;;;-139.48;100.00;61774.03;5034581;28;20127;-72
2022/03/07 01:05:32;;;;;;;39.00;16.38;;;;;;;-139.48;100.00;61774.03;5035226;28;20511;-72
2022/03/07 01:08:17;;;;;;;18.00;9.73;;;;;;;-139.48;100.00;61774.03;5034529;28;20159;-72
2022/03/07 01:11:00;;;;;;;22.10;11.25;;;;;;;-139.48;100.00;61774.03;5035040;28;20072;-72
2022/03/07 01:13:44;;;;;;;36.75;17.48;;;;;;;-139.48;100.00;61774.03;5034314;28;20124;-72
2022/03/07 01:16:28;;;;;;;27.10;11.93;;;;;;;-139.48;100.00;61774.03;5034494;28;20092;-73
2022/03/07 01:19:12;;;;;;;24.15;11.77;;;;;;;-139.48;100.00;61774.03;5035272;28;20520;-73
2022/03/07 01:21:56;;;;;;;14.93;9.48;;;;;;;-139.48;100.00;61774.03;5034216;28;20408;-72
2022/03/07 01:24:40;;;;;;;25.65;12.13;;;;;;;-139.48;100.00;61774.03;5034957;28;20056;-73
2022/03/07 01:27:24;;;;;;;15.00;8.25;;;;;;;-139.48;100.00;61774.03;5033949;28;20099;-72
2022/03/07 01:30:08;;;;;;;17.58;9.90;;;;;;;-139.48;100.00;61774.03;5019827;28;20060;-72
2022/03/07 01:32:52;;;;;;;17.67;9.57;;;;;;;-139.48;100.00;61774.03;5033706;28;20052;-72
2022/03/07 01:35:36;;;;;;;13.20;8.80;;;;;;;-139.48;100.00;61774.03;5034672;28;20108;-72
2022/03/07 01:38:20;;;;;;;14.15;8.43;;;;;;;-139.48;100.00;61774.03;5033895;28;20551;-70
2022/03/07 01:41:04;;;;;;;15.68;8.80;;;;;;;-139.48;100.00;61774.03;5034810;28;20079;-73
2022/03/07 01:43:48;;;;;;;14.63;8.48;;;;;;;-139.48;100.00;61774.03;5033391;28;20472;-72
2022/03/07 01:46:32;;;;;;;14.10;7.97;;;;;;;-139.48;100.00;61774.03;5033819;28;20461;-72
2022/03/07 01:49:17;;;;;;;15.32;8.80;;;;;;;-139.48;100.00;61774.03;5033446;28;20051;-71
2022/03/07 01:52:02;;;;;;;11.15;7.40;;;;;;;-139.48;100.00;61774.03;5033275;28;20053;-72
2022/03/07 01:54:46;;;;;;;18.80;10.20;;;;;;;-139.48;100.00;61774.03;5033172;28;20048;-72
2022/03/07 01:57:30;;;;;;;13.95;8.00;;;;;;;-139.48;100.00;61774.03;5034465;28;20041;-72
2022/03/07 02:00:17;;;;;;;13.98;8.30;;;;;;;-139.48;100.00;61774.03;5033846;28;20078;-72
2022/03/07 02:03:01;;;;;;;17.02;9.60;;;;;;;-139.48;100.00;61774.03;5033084;28;20560;-72
2022/03/07 02:05:47;;;;;;;;;;;;;;;-139.48;100.00;61774.03;5033741;28;20515;-73
2022/03/07 02:08:31;;;;;;;12.98;8.25;;;;;;;-139.48;100.00;61774.03;5033104;28;19920;-72
2022/03/07 02:11:15;;;;;;;13.40;8.48;;;;;;;-139.48;100.00;61774.03;5034219;28;20094;-70
2022/03/07 02:14:22;;;;;;;14.38;8.02;;;;;;;-139.48;100.00;61774.03;5034001;28;20064;-72
2022/03/07 02:17:06;;;;;;;11.18;8.13;;;;;;;-139.48;100.00;61774.03;5032990;28;20472;-72
2022/03/07 02:19:50;;;;;;;13.13;8.55;;;;;;;-139.48;100.00;61774.03;5019196;28;20119;-71
2022/03/07 02:22:34;;;;;;;14.02;8.93;;;;;;;-139.48;100.00;61774.03;5033896;28;20186;-71
2022/03/07 02:25:17;;;;;;;13.95;7.70;;;;;;;-139.48;100.00;61774.03;5033828;28;20052;-72
2022/03/07 02:28:01;;;;;;;14.10;8.35;;;;;;;-139.48;100.00;61774.03;5033990;28;20133;-72
2022/03/07 02:30:45;;;;;;;;;;;;;;;-139.48;100.00;61774.03;5034035;28;20559;-73
2022/03/07 02:33:29;;;;;;;12.50;8.20;;;;;;;-139.48;100.00;61774.03;5034141;28;19959;-72
2022/03/07 02:36:13;;;;;;;12.82;7.82;;;;;;;-139.48;100.00;61774.03;5033085;28;20195;-73
2022/03/07 02:38:57;;;;;;;13.45;7.75;;;;;;;-139.48;100.00;61774.03;5032816;28;20203;-72
2022/03/07 02:41:41;;;;;;;;;;;;;;;-139.48;100.00;61774.03;5033871;28;20409;-73
2022/03/07 02:44:25;;;;;;;15.60;8.27;;;;;;;-139.48;100.00;61774.03;5033722;28;20356;-73
2022/03/07 02:47:12;;;;;;;;;;;;;;;-139.48;100.00;61774.03;5033211;28;20048;-73
2022/03/07 02:49:55;;;;;;;12.95;7.70;;;;;;;-139.48;100.00;61774.03;5032525;28;20411;-73
2022/03/07 02:52:39;;;;;;;10.82;7.47;;;;;;;-139.48;100.00;61774.03;5032654;28;20068;-73
2022/03/07 02:55:23;;;;;;;13.80;7.65;;;;;;;-139.48;100.00;61774.03;5033433;28;20524;-73
2022/03/07 02:58:07;;;;;;;11.00;7.85;;;;;;;-139.48;100.00;61774.03;5032225;28;20048;-73
2022/03/07 03:00:51;;;;;;;16.08;9.05;;;;;;;-139.48;100.00;61774.03;5033201;28;20051;-72
2022/03/07 03:03:36;;;;;;;18.05;9.65;;;;;;;-139.48;100.00;61774.03;5033033;28;20428;-73
2022/03/07 03:06:19;;;;;;;11.95;8.00;;;;;;;;;;5033141;28;20560;-73
2022/03/07 03:09:04;;;;;;;15.15;8.70;;;;;;;1.68;52.01;101115.00;5033196;28;20107;-70
2022/03/07 03:11:48;;;;;;;14.85;8.68;;;;;;;1.58;51.79;101108.44;5033109;28;20106;-73
2022/03/07 03:14:31;;;;;;;;;;;;;;;1.46;52.79;101113.41;5033426;28;20057;-70
2022/03/07 03:17:16;;;;;;;13.23;8.37;;;;;;;1.39;52.60;101119.84;5032110;28;19919;-73
2022/03/07 03:20:00;;;;;;;14.70;8.75;;;;;;;1.37;53.49;101119.06;5033024;28;20362;-73
2022/03/07 03:22:44;;;;;;;12.70;8.05;;;;;;;1.39;53.69;101131.22;5032966;28;20133;-72
2022/03/07 03:25:28;;;;;;;14.65;8.27;;;;;;;1.34;53.64;101130.53;5031643;28;20091;-73
2022/03/07 03:28:12;;;;;;;15.20;9.18;;;;;;;1.41;53.57;101132.00;5033197;28;20045;-72
2022/03/07 03:30:57;;;;;;;15.75;9.05;;;;;;;-139.48;100.00;61774.03;5033151;28;20048;-73
2022/03/07 03:33:42;;;;;;;12.80;8.32;;;;;;;-139.48;100.00;61774.03;5032609;28;20113;-71
2022/03/07 03:36:26;;;;;;;15.20;9.02;;;;;;;-139.48;100.00;61774.03;5032854;28;20052;-71
2022/03/07 03:39:10;;;;;;;;;;;;;;;-139.48;100.00;61774.03;5031983;28;20091;-70
2022/03/07 03:41:54;;;;;;;13.30;8.35;;;;;;;-139.48;100.00;61774.03;5032697;28;19964;-72
2022/03/07 03:44:38;;;;;;;12.27;8.10;;;;;;;-139.48;100.00;61774.03;5031492;28;20052;-72
2022/03/07 03:47:21;;;;;;;14.10;8.82;;;;;;;-139.48;100.00;61774.03;5032515;28;20168;-71
2022/03/07 03:50:07;;;;;;;15.10;9.13;;;;;;;-139.48;100.00;61774.03;5032573;28;20505;-72
2022/03/07 03:52:52;;;;;;;12.27;8.73;;;;;;;-139.48;100.00;61774.03;5032385;28;20580;-72
2022/03/07 03:55:36;;;;;;;13.38;8.90;;;;;;;-139.48;100.00;61774.03;5032400;28;20048;-71
2022/03/07 03:58:20;;;;;;;12.75;7.30;;;;;;;-139.48;100.00;61774.03;5032436;28;20068;-72
2022/03/07 04:01:03;;;;;;;13.70;8.40;;;;;;;-139.48;100.00;61774.03;5031613;28;20044;-72
2022/03/07 04:03:47;;;;;;;12.45;8.02;;;;;;;-139.48;100.00;61774.03;5031273;28;20060;-72
2022/03/07 04:06:31;;;;;;;16.98;8.43;;;;;;;-139.48;100.00;61774.03;5032837;28;20052;-72
2022/03/07 04:09:17;;;;;;;14.45;8.63;;;;;;;-139.48;100.00;61774.03;5032418;28;20060;-72
2022/03/07 04:12:01;;;;;;;12.35;7.88;;;;;;;-139.48;100.00;61774.03;5031494;28;20055;-69
2022/03/07 04:14:45;;;;;;;;;;;;;;;-139.48;100.00;61774.03;5032818;28;20413;-71
2022/03/07 04:17:29;;;;;;;10.75;6.05;;;;;;;-139.48;100.00;61774.03;5032540;28;19959;-71
2022/03/07 04:20:13;;;;;;;;;;;;;;;-139.48;100.00;61774.03;5035967;28;20048;-71
2022/03/07 04:22:57;;;;;;;12.65;7.32;;;;;;;-139.48;100.00;61774.03;5036650;28;19920;-73
2022/03/07 04:25:41;;;;;;;12.68;8.00;;;;;;;-139.48;100.00;61774.03;5034968;28;20052;-73
2022/03/07 04:28:25;;;;;;;;;;;;;;;-139.48;100.00;61774.03;5036480;28;20504;-73
2022/03/07 04:31:09;;;;;;;12.35;7.43;;;;;;;-139.48;100.00;61774.03;5035884;28;19924;-71
2022/03/07 04:33:53;;;;;;;;;;;;;;;-139.48;100.00;61774.03;5036311;28;20145;-72
2022/03/07 04:36:38;;;;;;;10.82;6.78;;;;;;;-139.48;100.00;61774.03;5035090;28;19986;-72
2022/03/07 04:39:23;;;;;;;16.40;6.70;;;;;;;-139.48;100.00;61774.03;5036037;28;20133;-72
2022/03/07 04:42:07;;;;;;;9.38;6.35;;;;;;;-139.48;100.00;61774.03;5034969;28;20056;-71
2022/03/07 04:44:51;;;;;;;9.30;6.43;;;;;;;-139.48;100.00;61774.03;5020502;28;20095;-73
2022/03/07 04:47:35;;;;;;;9.60;6.70;;;;;;;-139.48;100.00;61774.03;5034931;28;20115;-73
2022/03/07 04:50:18;;;;;;;10.02;6.30;;;;;;;-139.48;100.00;61774.03;5035867;28;20052;-72
2022/03/07 04:53:02;;;;;;;14.35;6.35;;;;;;;-139.48;100.00;61774.03;5035512;28;20052;-73
2022/03/07 04:55:47;;;;;;;8.50;5.68;;;;;;;-139.48;100.00;61774.03;5034776;28;20440;-72
2022/03/07 04:58:31;;;;;;;7.18;5.20;;;;;;;-139.48;100.00;61774.03;5035425;28;20508;-72
2022/03/07 05:01:15;;;;;;;8.57;5.30;;;;;;;-139.48;100.00;61774.03;5034575;28;20566;-73
2022/03/07 05:03:59;;;;;;;7.90;5.57;;;;;;;-139.48;100.00;61774.03;5034259;28;20111;-73
2022/03/07 05:06:43;;;;;;;;;;;;;;;-139.48;100.00;61774.03;5036296;28;20137;-72
2022/03/07 05:09:27;;;;;;;9.88;5.47;;;;;;;-139.48;100.00;61774.03;5035345;28;19991;-70
2022/03/07 05:12:12;;;;;;;8.85;5.53;;;;;;;-139.48;100.00;61774.03;5035362;28;20136;-73
2022/03/07 05:14:57;;;;;;;9.65;5.60;;;;;;;-139.48;100.00;61774.03;5035172;28;20172;-72
2022/03/07 05:17:43;;;;;;;11.82;5.57;;;;;;;-139.48;100.00;61774.03;5035514;28;20053;-72
2022/03/07 05:20:27;;;;;;;8.32;5.57;;;;;;;-139.48;100.00;61774.03;5034012;28;20044;-72
2022/03/07 05:23:11;;;;;;;;;;;;;;;-139.48;100.00;61774.03;5035639;28;20088;-72
2022/03/07 05:25:55;;;;;;;7.95;5.60;;;;;;;-139.48;100.00;61774.03;5035230;28;20331;-72
2022/03/07 05:28:40;;;;;;;8.70;5.75;;;;;;;-139.48;100.00;61774.03;5035375;28;20080;-72
2022/03/07 05:31:23;;;;;;;7.38;4.95;;;;;;;-139.48;100.00;61774.03;5019568;28;20049;-73
2022/03/07 05:34:07;;;;;;;;;;;;;;;-139.48;100.00;61774.03;5020135;28;20064;-71
2022/03/07 05:36:51;;;;;;;6.82;4.25;;;;;;;-139.48;100.00;61774.03;5035011;28;19936;-72
2022/03/07 05:39:35;;;;;;;7.53;4.95;;;;;;;-139.48;100.00;61774.03;5019854;28;20084;-73
2022/03/07 05:42:20;;;;;;;9.00;5.28;;;;;;;-139.48;100.00;61774.03;5034685;28;20188;-72
2022/03/07 05:45:07;;;;;;;9.13;5.75;;;;;;;-139.48;100.00;61774.03;5034467;28;20107;-72
2022/03/07 05:47:51;;;;;;;8.85;5.78;;;;;;;-139.48;100.00;61774.03;5033713;28;20056;-73
2022/03/07 05:50:35;;;;;;;9.35;6.15;;;;;;;-139.48;100.00;61774.03;5034573;28;20043;-73
2022/03/07 05:53:21;;;;;;;9.63;6.03;;;;;;;-139.48;100.00;61774.03;5034646;28;20044;-72
2022/03/07 05:56:05;;;;;;;16.52;5.70;;;;;;;-139.48;100.00;61774.03;5033394;28;20060;-72
2022/03/07 05:58:49;;;;;;;9.05;6.30;;;;;;;-139.48;100.00;61774.03;5034710;28;20095;-72
2022/03/07 06:01:33;;;;;;;10.48;5.78;;;;;;;-139.48;100.00;61774.03;5034857;28;20085;-72
2022/03/07 06:04:16;;;;;;;11.18;6.70;;;;;;;-139.48;100.00;61774.03;5034305;28;20420;-72
2022/03/07 06:07:00;;;;;;;12.68;6.03;;;;;;;-139.48;100.00;61774.03;5034703;28;20045;-71
2022/03/07 06:09:44;;;;;;;8.90;5.78;;;;;;;-139.48;100.00;61774.03;5033289;28;20091;-71
2022/03/07 06:12:28;;;;;;;9.98;5.97;;;;;;;-139.48;100.00;61774.03;5033010;28;20421;-72
2022/03/07 06:15:12;;;;;;;13.82;6.43;;;;;;;-139.48;100.00;61774.03;5033938;28;20180;-72
2022/03/07 06:18:00;;;;;;;9.60;5.82;;;;;;;-139.48;100.00;61774.03;5033266;28;20619;-72
2022/03/07 06:20:45;;;;;;;13.18;5.65;;;;;;;-139.48;100.00;61774.03;5033136;28;20161;-72
2022/03/07 06:23:28;;;;;;;9.02;6.05;;;;;;;-139.48;100.00;61774.03;5032817;28;20052;-71
2022/03/07 06:26:12;;;;;;;;;;;;;;;-139.48;100.00;61774.03;5034457;28;20048;-72
2022/03/07 06:28:56;;;;;;;11.35;6.30;;;;;;;-139.48;100.00;61774.03;5034052;28;19920;-72
2022/03/07 06:31:41;;;;;;;12.43;6.55;;;;;;;-139.48;100.00;61774.03;5033640;28;20524;-72
2022/03/07 06:34:24;;;;;;;10.88;6.38;;;;;;;-139.48;100.00;61774.03;5033592;28;20128;-73
2022/03/07 06:37:08;;;;;;;11.00;6.43;;;;;;;-139.48;100.00;61774.03;5034108;28;20063;-72
2022/03/07 06:39:52;;;;;;;10.82;6.72;;;;;;;-139.48;100.00;61774.03;5033735;28;20051;-73
2022/03/07 06:42:36;;;;;;;14.40;6.63;;;;;;;-139.48;100.00;61774.03;5033231;28;20124;-72
2022/03/07 06:45:20;;;;;;;10.82;6.30;;;;;;;-139.48;100.00;61774.03;5046259;22;20057;-75
2022/03/07 06:48:04;;;;;;;10.02;6.55;;;;;;;-139.48;100.00;61774.03;5014095;28;20268;-74
2022/03/07 06:50:48;;;;;;;10.13;6.40;;;;;;;-139.48;100.00;61774.03;5012831;28;20296;-75
2022/03/07 06:53:32;;;;;;;11.10;6.95;;;;;;;-139.48;100.00;61774.03;5013909;28;20045;-75
2022/03/07 06:56:17;;;;;;;12.23;6.65;;;;;;;-139.48;100.00;61774.03;5012827;28;20048;-74
2022/03/07 06:59:01;;;;;;;9.48;6.18;;;;;;;-139.48;100.00;61774.03;5012592;28;20450;-75
2022/03/07 07:01:45;;;;;;;9.73;6.57;;;;;;;-139.48;100.00;61774.03;5013810;28;20490;-75
2022/03/07 07:04:28;;;;;;;;;;;;;;;-139.48;100.00;61774.03;4999502;28;20048;-75
2022/03/07 07:07:14;;;;;;;11.77;6.57;;;;;;;-139.48;100.00;61774.03;5013717;28;19920;-75
2022/03/07 07:09:59;;;;;;;16.75;7.03;;;;;;;-139.48;100.00;61774.03;5012529;28;20111;-75
2022/03/07 07:12:43;;;;;;;14.38;6.90;;;;;;;-139.48;100.00;61774.03;5012570;28;20107;-75
2022/03/07 07:15:27;;;;;;;;;;;;;;;-139.48;100.00;61774.03;5013676;28;20128;-74
2022/03/07 07:18:11;;;;;;;11.40;6.35;;;;;;;-139.48;100.00;61774.03;5013257;28;20281;-74
2022/03/07 07:20:55;;;;;;;12.82;6.97;;;;;;;-139.48;100.00;61774.03;5012329;28;20111;-75
2022/03/07 07:23:39;;;;;;;11.43;6.80;;;;;;;-139.48;100.00;61774.03;5013496;28;20049;-74
2022/03/07 07:26:23;;;;;;;12.48;6.85;;;;;;;-139.48;100.00;61774.03;5012135;28;20053;-75
2022/03/07 07:29:07;;;;;;;14.80;7.20;;;;;;;-139.48;100.00;61774.03;5013433;28;20552;-74
2022/03/07 07:31:53;;;;;;;13.35;6.78;;;;;;;-139.48;100.00;61774.03;5012288;28;20513;-75
2022/03/07 07:34:37;;;;;;;12.10;7.15;;;;;;;-139.48;100.00;61774.03;5012054;28;20520;-74
2022/03/07 07:37:21;;;;;;;14.25;7.50;;;;;;;-139.48;100.00;61774.03;5012307;28;20056;-74
2022/03/07 07:40:07;;;;;;;10.70;7.00;;;;;;;-139.48;100.00;61774.03;4998216;28;20183;-75
2022/03/07 07:42:51;;;;;;;12.93;6.75;;;;;;;-139.48;100.00;61774.03;5013314;28;20548;-74
2022/03/07 07:45:35;;;;;;;;;;;;;;;-139.48;100.00;61774.03;5012067;28;20534;-74
2022/03/07 07:48:19;;;;;;;12.18;6.93;;;;;;;-139.48;100.00;61774.03;5013230;28;19924;-75
2022/03/07 07:51:03;;;;;;;12.55;6.40;;;;;;;-139.48;100.00;61774.03;4998407;28;20108;-75
2022/03/07 07:53:47;;;;;;;11.52;6.53;;;;;;;-139.48;100.00;61774.03;4998700;28;20057;-74
2022/03/07 07:56:31;;;;;;;10.23;6.82;;;;;;;-139.48;100.00;61774.03;5016864;28;20176;-75
2022/03/07 07:59:14;;;;;;;11.55;6.65;;;;;;;-139.48;100.00;61774.03;5015890;28;20167;-73
2022/03/07 08:01:58;;;;;;;12.13;6.63;;;;;;;-139.48;100.00;61774.03;5016896;28;20053;-75
2022/03/07 08:04:42;;;;;;;10.93;6.70;;;;;;;-139.48;100.00;61774.03;5002113;28;20072;-75
2022/03/07 08:07:27;;;;;;;;;;;;;;;-139.48;100.00;61774.03;5017448;28;20480;-75
2022/03/07 08:10:13;;;;;;;9.30;6.13;;;;;;;-139.48;100.00;61774.03;5002192;28;20341;-74
2022/03/07 08:12:58;;;;;;;13.27;7.18;;;;;;;-139.48;100.00;61774.03;5016814;28;20092;-74
2022/03/07 08:15:42;;;;;;;11.57;6.93;;;;;;;-139.48;100.00;61774.03;5001758;28;20049;-75
2022/03/07 08:18:26;;;;;;;11.18;6.88;;;;;;;-139.48;100.00;61774.03;5015771;28;20188;-75
2022/03/07 08:21:10;;;;;;;12.73;7.20;;;;;;;-139.48;100.00;61774.03;5015588;28;20053;-74
2022/03/07 08:23:55;;;;;;;11.85;6.88;;;;;;;-139.48;100.00;61774.03;5016732;28;20049;-74
2022/03/07 08:26:39;;;;;;;14.07;7.28;;;;;;;-139.48;100.00;61774.03;5015657;28;20572;-75
2022/03/07 08:29:23;;;;;;;14.63;7.60;;;;;;;-139.48;100.00;61774.03;5015556;28;20525;-74
2022/03/07 08:32:06;;;;;;;11.95;6.88;;;;;;;-139.48;100.00;61774.03;5015468;28;20049;-74
2022/03/07 08:34:50;;;;;;;12.38;7.47;;;;;;;-139.48;100.00;61774.03;5016623;28;20152;-75
2022/03/07 08:37:35;;;;;;;11.40;7.13;;;;;;;-139.48;100.00;61774.03;5016229;28;20516;-74
2022/03/07 08:40:21;;;;;;;11.02;7.03;;;;;;;-139.48;100.00;61774.03;5001670;28;20053;-74
2022/03/07 08:43:05;;;;;;;14.50;8.20;;;;;;;-139.48;100.00;61774.03;5015110;28;20049;-74
2022/03/07 08:45:50;;;;;;;14.02;7.82;;;;;;;-139.48;100.00;61774.03;5015991;28;20593;-75
2022/03/07 08:48:34;;;;;;;14.32;7.22;;;;;;;-139.48;100.00;61774.03;5001418;28;20056;-74
2022/03/07 08:51:18;;;;;;;;;;;;;;;-139.48;100.00;61774.03;5016577;28;20048;-74
2022/03/07 08:54:02;;;;;;;13.75;8.48;;;;;;;-139.48;100.00;61774.03;5016022;28;19921;-74
2022/03/07 08:56:46;;;;;;;;;;;;;;;-139.48;100.00;61774.03;5015257;28;20053;-74
2022/03/07 08:59:30;;;;;;;12.53;7.30;;;;;;;-139.48;100.00;61774.03;5014817;28;19920;-75
2022/03/07 09:02:13;;;;;;;12.85;7.70;;;;;;;-139.48;100.00;61774.03;5015792;28;20045;-74
2022/03/07 09:04:57;;;;;;;12.32;7.85;;;;;;;-139.48;100.00;61774.03;5000885;28;20057;-75
2022/03/07 09:07:41;;;;;;;12.40;8.30;;;;;;;-139.48;100.00;61774.03;5016174;28;20475;-75
2022/03/07 09:10:25;;;;;;;14.07;8.10;;;;;;;-139.48;100.00;61774.03;5015101;28;20135;-73
2022/03/07 09:13:10;;;;;;;14.73;8.57;;;;;;;-139.48;100.00;61774.03;5014699;28;20089;-74
2022/03/07 09:15:55;;;;;;;14.15;8.85;;;;;;;-139.48;100.00;61774.03;5014743;28;20095;-75
2022/03/07 09:18:41;;;;;;;14.70;8.38;;;;;;;-139.48;100.00;61774.03;5015185;28;20080;-74
2022/03/07 09:21:25;;;;;;;15.95;8.90;;;;;;;-139.48;100.00;61774.03;5014845;28;20440;-74
2022/03/07 09:24:09;;;;;;;13.93;8.70;;;;;;;-139.48;100.00;61774.03;5014836;28;20137;-74
2022/03/07 09:26:53;;;;;;;;;;;;;;;-139.48;100.00;61774.03;5001456;28;20129;-74
2022/03/07 09:29:37;;;;;;;12.43;8.20;;;;;;;-139.48;100.00;61774.03;5015185;28;20372;-75
2022/03/07 09:32:21;;;;;;;12.82;8.25;;;;;;;-139.48;100.00;61774.03;5014379;28;20103;-75
2022/03/07 09:35:05;;;;;;;12.60;8.68;;;;;;;-139.48;100.00;61774.03;5015356;28;20052;-74
2022/03/07 09:37:49;;;;;;;16.77;7.75;;;;;;;-139.48;100.00;61774.03;5015396;28;20052;-74
2022/03/07 09:40:33;;;;;;;13.63;8.07;;;;;;;-139.48;100.00;61774.03;5015368;28;20052;-75
2022/03/07 09:43:17;;;;;;;111.90;60.53;;;;;;;-139.48;100.00;61774.03;5015304;28;20053;-74
2022/03/07 09:46:00;;;;;;;22.00;14.27;;;;;;;-139.48;100.00;61774.03;5015210;28;20052;-75
2022/03/07 09:48:44;;;;;;;23.85;16.15;;;;;;;-139.48;100.00;61774.03;5014079;28;20099;-74
2022/03/07 09:51:28;;;;;;;18.05;12.20;;;;;;;-139.48;100.00;61774.03;5014103;28;20413;-74
2022/03/07 09:54:12;;;;;;;;;;;;;;;-139.48;100.00;61774.03;5014689;28;20631;-75
2022/03/07 09:56:56;;;;;;;28.03;17.23;;;;;;;-139.48;100.00;61774.03;5014457;28;20016;-74
2022/03/07 09:59:40;;;;;;;71.20;35.90;;;;;;;-139.48;100.00;61774.03;5014944;28;20099;-75
2022/03/07 10:02:25;;;;;;;25.55;16.58;;;;;;;-139.48;100.00;61774.03;5014394;28;20453;-75
2022/03/07 10:05:09;;;;;;;22.27;16.45;;;;;;;-139.48;100.00;61774.03;5014129;28;20417;-75
2022/03/07 10:07:54;;;;;;;24.52;20.85;;;;;;;-139.48;100.00;61774.03;5014337;28;20397;-75
2022/03/07 10:10:43;;;;;;;15.05;12.82;;;;;;;-139.48;100.00;61774.03;5014015;28;20052;-74
2022/03/07 10:13:27;;;;;;;19.60;15.95;;;;;;;-139.48;100.00;61774.03;5014778;28;20072;-74
2022/03/07 10:16:11;;;;;;;20.23;16.80;;;;;;;-139.48;100.00;61774.03;5013956;28;20049;-75
2022/03/07 10:18:55;;;;;;;21.42;15.20;;;;;;;-139.48;100.00;61774.03;5013716;28;20052;-74
2022/03/07 10:21:47;;;;;;;17.35;14.00;;;;;;;-139.48;100.00;61774.03;5013087;28;20179;-74
2022/03/07 10:24:33;;;;;;;25.15;20.45;;;;;;;-139.48;100.00;61774.03;5014046;28;20060;-72
2022/03/07 10:27:25;;;;;;;18.27;13.43;;;;;;;-139.48;100.00;61774.03;4999484;28;20057;-74
2022/03/07 10:30:32;;;;;;;13.38;11.13;;;;;;;-139.48;100.00;61774.03;5013413;28;20194;-72
2022/03/07 10:33:16;;;;;;;17.15;14.23;;;;;;;-139.48;100.00;61774.03;5014042;28;20377;-73
2022/03/07 10:36:00;;;;;;;23.15;18.52;;;;;;;-139.48;100.00;61774.03;5014059;28;20117;-74
2022/03/07 10:38:44;;;;;;;20.65;15.98;;;;;;;-139.48;100.00;61774.03;5013084;28;20129;-74
2022/03/07 10:41:35;;;;;;;14.52;10.98;;;;;;;-139.48;100.00;61774.03;5012825;28;20049;-73
2022/03/07 10:44:30;;;;;;;20.08;11.73;;;;;;;-139.48;100.00;61774.03;4998767;28;20048;-74
2022/03/07 10:47:17;;;;;;;16.85;12.30;;;;;;;-139.48;100.00;61774.03;5012660;28;20125;-73
2022/03/07 10:50:03;;;;;;;14.88;11.13;;;;;;;-139.48;100.00;61774.03;5012886;28;20056;-74
2022/03/07 10:52:48;;;;;;;39.17;24.70;;;;;;;-139.48;100.00;61774.03;4999176;28;20116;-74
2022/03/07 10:55:33;;;;;;;30.42;24.67;;;;;;;-139.48;100.00;61774.03;5013713;28;20053;-73
2022/03/07 10:58:17;;;;;;;24.83;22.13;;;;;;;-139.48;100.00;61774.03;5014011;28;20057;-74
2022/03/07 11:01:01;;;;;;;19.83;16.10;;;;;;;-139.48;100.00;61774.03;5012474;28;20126;-71
2022/03/07 11:03:45;;;;;;;17.23;13.85;;;;;;;-139.48;100.00;61774.03;5012623;28;20048;-74
2022/03/07 11:06:33;;;;;;;19.20;15.85;;;;;;;-139.48;100.00;61774.03;5012602;28;20517;-73
2022/03/07 11:09:17;;;;;;;19.98;15.30;;;;;;;-139.48;100.00;61774.03;5012580;28;20141;-74
2022/03/07 11:12:02;;;;;;;20.63;15.40;;;;;;;-139.48;100.00;61774.03;5012668;28;20461;-74
2022/03/07 11:14:46;;;;;;;17.65;13.45;;;;;;;-139.48;100.00;61774.03;5012416;28;20485;-74
2022/03/07 11:17:31;;;;;;;17.75;13.50;;;;;;;-139.48;100.00;61774.03;4998241;28;20068;-74
2022/03/07 11:20:16;;;;;;;25.25;20.80;;;;;;;-139.48;100.00;61774.03;5013425;28;20080;-73
2022/03/07 11:23:01;;;;;;;26.70;20.48;;;;;;;-139.48;100.00;61774.03;5012375;28;20516;-74
2022/03/07 11:25:45;;;;;;;15.05;11.02;;;;;;;-139.48;100.00;61774.03;5012176;28;20118;-73
2022/03/07 11:28:30;;;;;;;18.10;13.15;;;;;;;-139.48;100.00;61774.03;5011911;28;20060;-73
2022/03/07 11:31:19;;;;;;;26.85;20.50;;;;;;;-139.48;100.00;61774.03;5012169;28;20135;-74
2022/03/07 11:34:07;;;;;;;23.02;15.93;;;;;;;-139.48;100.00;61774.03;5013466;28;20111;-73
2022/03/07 11:36:51;;;;;;;24.90;20.75;;;;;;;-139.48;100.00;61774.03;5012948;28;20111;-73
2022/03/07 11:39:36;;;;;;;21.45;17.38;;;;;;;-139.48;100.00;61774.03;5012126;28;20052;-73
2022/03/07 11:42:20;;;;;;;16.42;12.02;;;;;;;-139.48;100.00;61774.03;5012018;28;20516;-73
2022/03/07 11:45:09;;;;;;;18.95;14.85;;;;;;;-139.48;100.00;61774.03;4997917;28;20065;-73
2022/03/07 11:47:53;;;;;;;14.90;11.70;;;;;;;-139.48;100.00;61774.03;5012783;28;20103;-73
2022/03/07 11:50:37;;;;;;;;;;;;;;;-139.48;100.00;61774.03;5012490;28;20123;-74
2022/03/07 11:53:21;;;;;;;18.65;15.57;;;;;;;-139.48;100.00;61774.03;5011768;28;19925;-73
2022/03/07 11:56:14;;;;;;;;;;;;;;;-139.48;100.00;61774.03;5012016;28;20103;-73
2022/03/07 11:59:00;;;;;;;21.98;17.30;;;;;;;-139.48;100.00;61774.03;5012065;28;19920;-74
2022/03/07 12:01:53;;;;;;;18.88;16.15;;;;;;;-139.48;100.00;61774.03;5012900;28;20103;-73
2022/03/07 12:04:43;;;;;;;20.85;17.33;;;;;;;-139.48;100.00;61774.03;5012654;28;20049;-73
2022/03/07 12:07:27;;;;;;;26.88;20.88;;;;;;;-139.48;100.00;61774.03;5011925;28;20064;-73
2022/03/07 12:10:11;;;;;;;;;;;;;;;-139.48;100.00;61774.03;5012333;28;20073;-73
2022/03/07 12:13:04;;;;;;;16.07;13.90;;;;;;;-139.48;100.00;61774.03;4997894;28;19924;-74
2022/03/07 12:15:58;;;;;;;14.80;11.63;;;;;;;-139.48;100.00;61774.03;5012802;28;20290;-73
2022/03/07 12:18:44;;;;;;;12.77;10.43;;;;;;;-139.48;100.00;61774.03;5011908;28;20104;-73
2022/03/07 12:21:29;;;;;;;16.95;14.05;;;;;;;-139.48;100.00;61774.03;5012086;28;20500;-73
2022/03/07 12:24:14;;;;;;;;;;;;;;;-139.48;100.00;61774.03;5012059;28;20065;-74
2022/03/07 12:26:58;;;;;;;20.17;16.55;;;;;;;-139.48;100.00;61774.03;5011212;28;19920;-74
2022/03/07 12:29:45;;;;;;;;;;;;;;;-139.48;100.00;61774.03;5011927;28;20053;-74